createdAt,value
2019-05-17T00:03:09.273Z,4.37
2019-05-17T00:07:16.703Z,6.33
2019-05-17T00:11:22.523Z,8.60
2019-05-17T00:15:28.257Z,10.70
2019-05-17T00:19:33.962Z,8.97
2019-05-17T00:23:40.632Z,6.40
2019-05-17T00:27:47.431Z,6.60
2019-05-17T00:31:53.704Z,7.67
2019-05-17T00:35:59.397Z,7.27
2019-05-17T00:40:07.694Z,8.67
2019-05-17T00:44:13.371Z,6.77
2019-05-17T00:48:19.070Z,8.40
2019-05-17T00:52:27.164Z,7.70
2019-05-17T00:56:32.119Z,7.70
2019-05-17T01:00:38.848Z,9.00
2019-05-17T01:04:44.535Z,7.83
2019-05-17T01:09:01.030Z,7.33
2019-05-17T01:12:57.706Z,7.37
2019-05-17T01:17:03.495Z,8.73
2019-05-17T01:21:09.331Z,6.60
2019-05-17T01:25:17.216Z,6.30
2019-05-17T01:29:22.635Z,6.80
2019-05-17T01:33:28.492Z,9.23
2019-05-17T01:37:36.711Z,11.03
2019-05-17T01:41:41.556Z,9.00
2019-05-17T01:45:48.059Z,6.23
2019-05-17T01:49:53.921Z,9.00
2019-05-17T01:53:59.596Z,6.73
2019-05-17T01:58:07.412Z,8.47
2019-05-17T02:02:16.312Z,10.27
2019-05-17T02:06:21.727Z,7.53
2019-05-17T02:10:27.413Z,9.57
2019-05-17T02:14:33.082Z,10.93
2019-05-17T02:18:38.788Z,9.30
2019-05-17T02:22:47.082Z,6.57
2019-05-17T02:26:51.925Z,8.13
2019-05-17T02:30:57.945Z,9.40
2019-05-17T02:35:04.446Z,10.80
2019-05-17T02:39:13.132Z,9.37
2019-05-17T02:43:17.612Z,10.23
2019-05-17T02:47:23.292Z,9.77
2019-05-17T02:51:32.117Z,11.57
2019-05-17T02:55:36.423Z,12.83
2019-05-17T02:59:43.316Z,10.67
2019-05-17T03:03:49.145Z,11.13
2019-05-17T03:07:54.815Z,12.23
2019-05-17T03:12:03.290Z,10.60
2019-05-17T03:16:07.903Z,11.17
2019-05-17T03:20:15.314Z,10.77
2019-05-17T03:24:22.631Z,11.50
2019-05-17T03:28:28.538Z,10.67
2019-05-17T03:32:36.477Z,9.13
2019-05-17T03:36:46.966Z,14.63
2019-05-17T03:41:18.463Z,11.77
2019-05-17T03:45:02.631Z,14.33
2019-05-17T03:49:06.880Z,12.90
2019-05-17T03:53:13.284Z,12.17
2019-05-17T03:57:19.119Z,13.90
2019-05-17T04:01:24.894Z,10.40
2019-05-17T04:05:33.300Z,14.17
2019-05-17T04:09:38.050Z,11.57
2019-05-17T04:13:43.724Z,11.00
2019-05-17T04:17:52.690Z,13.40
2019-05-17T04:21:56.790Z,15.47
2019-05-17T04:26:04.339Z,11.07
2019-05-17T04:30:12.587Z,14.60
2019-05-17T04:34:18.050Z,12.80
2019-05-17T04:38:24.962Z,14.43
2019-05-17T04:42:33.162Z,14.77
2019-05-17T04:46:43.063Z,12.20
2019-05-17T04:50:48.788Z,14.67
2019-05-17T04:54:54.487Z,12.40
2019-05-17T04:59:03.246Z,12.07
2019-05-17T05:03:07.864Z,13.83
2019-05-17T05:07:13.933Z,13.37
2019-05-17T05:11:19.636Z,15.63
2019-05-17T05:15:44.472Z,16.77
2019-05-17T05:19:52.971Z,17.73
2019-05-17T05:23:57.864Z,19.10
2019-05-17T05:28:04.606Z,18.37
2019-05-17T05:32:11.805Z,18.83
2019-05-17T05:36:17.587Z,19.53
2019-05-17T05:40:23.257Z,18.40
2019-05-17T05:44:28.959Z,19.43
2019-05-17T05:48:34.637Z,13.13
2019-05-17T05:52:42.409Z,21.07
2019-05-17T05:56:47.828Z,17.80
2019-05-17T06:00:53.641Z,19.63
2019-05-17T06:05:01.751Z,15.80
2019-05-17T06:09:11.836Z,18.23
2019-05-17T06:13:16.961Z,18.53
2019-05-17T06:17:22.643Z,18.10
2019-05-17T06:21:29.020Z,14.67
2019-05-17T06:25:34.704Z,16.93
2019-05-17T06:29:41.506Z,16.17
2019-05-17T06:33:47.410Z,15.50
2019-05-17T06:37:53.612Z,14.93
2019-05-17T06:41:59.368Z,14.00
2019-05-17T06:46:05.179Z,13.83
2019-05-17T06:50:13.929Z,14.00
2019-05-17T06:54:18.818Z,16.33
2019-05-17T06:58:24.519Z,13.67
2019-05-17T07:02:30.816Z,12.30
2019-05-17T07:06:36.933Z,14.37
2019-05-17T07:10:42.703Z,12.70
2019-05-17T07:14:50.561Z,17.03
2019-05-17T07:18:55.795Z,13.53
2019-05-17T07:23:01.472Z,8.03
2019-05-17T07:27:07.225Z,13.80
2019-05-17T07:31:12.922Z,12.50
2019-05-17T07:35:19.800Z,12.77
2019-05-17T07:39:25.503Z,12.50
2019-05-17T07:43:31.278Z,13.20
2019-05-17T07:47:36.959Z,10.77
2019-05-17T07:51:42.644Z,11.20
2019-05-17T07:55:50.589Z,10.27
2019-05-17T07:59:55.818Z,11.07
2019-05-17T08:04:01.921Z,10.37
2019-05-17T08:08:09.655Z,10.63
2019-05-17T08:12:15.181Z,9.83
2019-05-17T08:16:20.903Z,10.77
2019-05-17T08:20:29.836Z,10.57
2019-05-17T08:24:35.109Z,8.87
2019-05-17T08:28:40.825Z,10.00
2019-05-17T08:32:46.607Z,10.50
2019-05-17T08:36:52.299Z,9.67
2019-05-17T08:41:00.526Z,10.67
2019-05-17T08:45:09.528Z,9.45
2019-05-17T08:49:14.855Z,11.53
2019-05-17T08:53:20.515Z,9.80
2019-05-17T08:57:26.513Z,9.93
2019-05-17T09:01:32.204Z,8.40
2019-05-17T09:05:38.043Z,9.43
2019-05-17T09:09:44.271Z,8.70
2019-05-17T09:13:57.907Z,8.57
2019-05-17T09:17:57.327Z,8.83
2019-05-17T09:22:04.069Z,8.17
2019-05-17T09:26:10.133Z,8.47
2019-05-17T09:30:16.435Z,8.50
2019-05-17T09:34:22.105Z,7.60
2019-05-17T09:38:29.556Z,7.30
2019-05-17T09:42:35.411Z,6.93
2019-05-17T09:46:41.088Z,7.03
2019-05-17T09:50:46.783Z,8.03
2019-05-17T09:54:52.443Z,8.70
2019-05-17T09:59:00.233Z,8.77
2019-05-17T10:03:05.593Z,8.63
2019-05-17T10:07:11.324Z,7.87
2019-05-17T10:11:20.092Z,9.13
2019-05-17T10:15:25.556Z,9.43
2019-05-17T10:19:31.756Z,8.23
2019-05-17T10:23:37.420Z,7.97
2019-05-17T10:27:43.108Z,8.20
2019-05-17T10:31:50.466Z,8.57
2019-05-17T10:35:56.279Z,6.97
2019-05-17T10:40:11.522Z,7.50
2019-05-17T10:44:19.825Z,8.13
2019-05-17T10:48:24.835Z,8.77
2019-05-17T10:52:30.510Z,9.20
2019-05-17T10:56:36.567Z,8.87
2019-05-17T11:00:42.397Z,7.50
2019-05-17T11:04:50.386Z,5.97
2019-05-17T11:08:55.517Z,7.20
2019-05-17T11:13:01.308Z,7.37
2019-05-17T11:17:07.015Z,4.93
2019-05-17T11:21:13.016Z,10.37
2019-05-17T11:25:19.156Z,8.93
2019-05-17T11:29:24.848Z,6.80
2019-05-17T11:33:30.515Z,6.80
2019-05-17T11:37:36.214Z,8.83
2019-05-17T11:41:41.895Z,5.90
2019-05-17T11:45:47.745Z,6.07
2019-05-17T11:49:53.489Z,6.03
2019-05-17T11:53:59.148Z,7.30
2019-05-17T11:58:05.495Z,6.50
2019-05-17T12:02:11.192Z,5.07
2019-05-17T12:06:16.941Z,4.80
2019-05-17T12:10:22.821Z,5.60
2019-05-17T12:14:29.628Z,5.70
2019-05-17T12:18:35.368Z,4.07
2019-05-17T12:22:41.839Z,5.27
2019-05-17T12:26:47.683Z,4.93
2019-05-17T12:30:53.410Z,3.90
2019-05-17T12:34:59.082Z,4.20
2019-05-17T12:39:06.777Z,3.87
2019-05-17T12:43:12.517Z,4.30
2019-05-17T12:47:18.246Z,3.53
2019-05-17T12:51:23.937Z,4.17
2019-05-17T12:55:29.672Z,4.37
2019-05-17T12:59:36.331Z,3.47
2019-05-17T13:03:42.006Z,4.00
2019-05-17T13:07:47.977Z,4.00
2019-05-17T13:11:53.647Z,3.20
2019-05-17T13:15:59.419Z,3.70
2019-05-17T13:20:10.268Z,3.70
2019-05-17T13:24:16.027Z,3.77
2019-05-17T13:28:21.702Z,3.43
2019-05-17T13:32:27.453Z,3.70
2019-05-17T13:36:33.204Z,4.40
2019-05-17T13:40:40.062Z,3.43
2019-05-17T13:44:46.065Z,4.13
2019-05-17T13:48:51.754Z,5.20
2019-05-17T13:52:57.469Z,4.27
2019-05-17T13:57:03.196Z,3.20
2019-05-17T14:01:08.928Z,4.07
2019-05-17T14:05:15.690Z,3.93
2019-05-17T14:09:21.368Z,4.30
2019-05-17T14:13:27.060Z,4.30
2019-05-17T14:17:32.742Z,3.93
2019-05-17T14:21:38.443Z,3.50
2019-05-17T14:25:44.102Z,5.30
2019-05-17T14:29:49.806Z,4.43
2019-05-17T14:33:55.507Z,4.90
2019-05-17T14:38:01.182Z,3.63
2019-05-17T14:46:04.617Z,4.83
2019-05-17T14:50:10.904Z,2.50
2019-05-17T14:54:16.591Z,2.50
2019-05-17T14:58:22.287Z,1.90
2019-05-17T15:02:28.062Z,2.83
2019-05-17T15:06:34.074Z,1.60
2019-05-17T15:10:39.813Z,2.00
2019-05-17T15:14:45.611Z,1.37
2019-05-17T15:18:51.328Z,3.13
2019-05-17T15:22:57.200Z,3.47
2019-05-17T15:27:05.783Z,2.37
2019-05-17T15:31:10.264Z,2.40
2019-05-17T15:35:15.990Z,4.50
2019-05-17T15:39:21.748Z,2.33
2019-05-17T15:43:27.418Z,2.17
2019-05-17T15:47:33.122Z,2.30
2019-05-17T15:51:38.799Z,2.47
2019-05-17T15:55:44.464Z,3.43
2019-05-17T15:59:50.168Z,2.23
2019-05-17T16:03:55.913Z,1.83
2019-05-17T16:08:01.575Z,2.17
2019-05-17T16:12:07.328Z,1.90
2019-05-17T16:16:13.004Z,1.70
2019-05-17T16:20:19.051Z,1.63
2019-05-17T16:24:24.781Z,1.70
2019-05-17T16:28:30.516Z,2.50
2019-05-17T16:32:36.161Z,1.90
2019-05-17T16:36:41.819Z,2.07
2019-05-17T16:40:47.519Z,3.03
2019-05-17T16:44:53.273Z,1.97
2019-05-17T16:48:58.941Z,2.13
2019-05-17T16:53:06.546Z,2.63
2019-05-17T16:57:12.435Z,2.13
2019-05-17T17:01:18.267Z,2.10
2019-05-17T17:05:24.138Z,2.00
2019-05-17T17:09:29.882Z,2.50
2019-05-17T17:13:35.644Z,2.60
2019-05-17T17:17:41.318Z,2.30
2019-05-17T17:21:47.029Z,2.70
2019-05-17T17:25:52.686Z,3.43
2019-05-17T17:29:58.353Z,4.30
2019-05-17T17:34:04.235Z,3.83
2019-05-17T17:38:10.547Z,2.70
2019-05-17T17:42:16.219Z,3.33
2019-05-17T17:46:22.370Z,3.03
2019-05-17T17:50:28.071Z,5.20
2019-05-17T17:54:33.845Z,3.27
2019-05-17T17:58:39.514Z,3.57
2019-05-17T18:02:45.316Z,3.40
2019-05-17T18:06:51.014Z,4.17
2019-05-17T18:10:56.715Z,3.40
2019-05-17T18:15:05.930Z,3.43
2019-05-17T18:19:10.386Z,3.73
2019-05-17T18:23:20.932Z,3.20
2019-05-17T18:27:23.787Z,3.70
2019-05-17T18:31:29.584Z,4.17
2019-05-17T18:35:36.338Z,4.57
2019-05-17T18:39:42.031Z,4.40
2019-05-17T18:43:47.729Z,3.50
2019-05-17T18:47:53.559Z,3.43
2019-05-17T18:51:59.418Z,4.43
2019-05-17T18:56:05.108Z,4.20
2019-05-17T19:00:11.555Z,3.70
2019-05-17T19:04:17.246Z,3.03
2019-05-17T19:08:22.953Z,4.10
2019-05-17T19:12:28.638Z,3.50
2019-05-17T19:16:34.346Z,2.90
2019-05-17T19:20:40.195Z,3.03
2019-05-17T19:24:45.894Z,4.27
2019-05-17T19:28:51.573Z,3.23
2019-05-17T19:32:58.250Z,3.80
2019-05-17T19:37:04.010Z,3.43
2019-05-17T19:41:10.692Z,4.33
2019-05-17T19:45:16.831Z,4.00
2019-05-17T19:49:22.569Z,6.87
2019-05-17T19:53:28.254Z,4.37
2019-05-17T19:57:33.986Z,4.67
2019-05-17T20:01:39.726Z,4.40
2019-05-17T20:05:45.424Z,3.33
2019-05-17T20:09:51.087Z,3.03
2019-05-17T20:13:56.770Z,3.53
2019-05-17T20:18:03.620Z,4.50
2019-05-17T20:22:10.076Z,2.80
2019-05-17T20:26:15.797Z,2.87
2019-05-17T20:30:21.805Z,3.30
2019-05-17T20:34:27.473Z,3.40
2019-05-17T20:38:33.303Z,3.97
2019-05-17T20:42:38.973Z,3.43
2019-05-17T20:46:44.651Z,3.43
2019-05-17T20:50:50.370Z,3.73
2019-05-17T20:54:56.033Z,5.70
2019-05-17T20:59:01.717Z,2.90
2019-05-17T21:03:07.395Z,4.07
2019-05-17T21:07:13.090Z,5.80
2019-05-17T21:11:18.819Z,4.30
2019-05-17T21:15:24.536Z,4.20
2019-05-17T21:19:30.198Z,4.10
2019-05-17T21:23:35.895Z,3.20
2019-05-17T21:27:41.923Z,3.77
2019-05-17T21:31:47.580Z,3.40
2019-05-17T21:35:53.402Z,3.27
2019-05-17T21:40:00.060Z,4.53
2019-05-17T21:44:05.944Z,3.00
2019-05-17T21:48:11.638Z,2.77
2019-05-17T21:52:17.309Z,4.40
2019-05-17T21:56:23.034Z,2.50
2019-05-17T22:00:54.305Z,2.93
2019-05-17T22:05:00.056Z,2.97
2019-05-17T22:09:08.054Z,3.13
2019-05-17T22:13:13.732Z,3.17
2019-05-17T22:17:19.409Z,3.53
2019-05-17T22:21:25.118Z,3.90
2019-05-17T22:25:30.822Z,3.90
2019-05-17T22:29:36.513Z,2.60
2019-05-17T22:33:42.228Z,3.40
2019-05-17T22:37:47.982Z,2.57
2019-05-17T22:41:53.658Z,3.00
2019-05-17T22:45:59.383Z,2.92
2019-05-17T22:50:06.382Z,4.37
2019-05-17T22:54:12.049Z,2.90
2019-05-17T22:58:17.740Z,3.67
2019-05-17T23:02:23.442Z,3.10
2019-05-17T23:06:29.109Z,3.10
2019-05-17T23:10:35.235Z,3.50
2019-05-17T23:14:40.976Z,4.33
2019-05-17T23:19:05.824Z,3.53
2019-05-17T23:23:11.531Z,3.47
2019-05-17T23:27:17.208Z,3.10
2019-05-17T23:31:23.086Z,3.50
2019-05-17T23:35:28.764Z,3.30
2019-05-17T23:39:34.518Z,3.00
2019-05-17T23:43:40.219Z,3.33
2019-05-17T23:47:45.900Z,3.70
2019-05-17T23:51:51.614Z,4.57
2019-05-17T23:55:57.284Z,3.77
